Huvudsida
METAR-TAF:

METAR-TAF

Flygplatser :

Arlanda

Stockholm-Arlanda, Sverige

latitud: 59-39N, longitud: 017-57E, höjd: 38 m

Aktuellt väderrapport

Denna rapport gjordes för 1 timme och 5 minuter sedan, klockan 06:20 UTC
Vind 15 kt från väst/sydväst
Temperatur 16°C
Fuktighet 72%
Tryck 1010 hPa
Sikt 10 km eller mer
Spridda moln på en höjd av 2500 ft

METAR: ESSA 190620Z 25015KT 9999 SCT025 16/11 Q1010 NOSIG

Tid: 09:25 (07:25 UTC)

Väderprognos

Denna rapport gjordes för 1 timme och 39 minuter sedan, klockan 05:46 UTC
Prognos gäller från 19 kl. 06 UTC till 20 kl. 06 UTC
Vind 14 kt från väst/sydväst i byarna ända upp till 24 kt
Sikt 10 km eller mer
Få moln på en höjd av 2500 ft
Spridda moln på en höjd av 5000 ft
Blir
från 19 kl. 18 UTC till 19 kl. 20 UTC
Vind 4 kt från väst/sydväst

TAF: ESSA 190546Z 1906/2006 25014G24KT 9999 FEW025 SCT050 BECMG 1918/1920 24004KT

Aktuella väderrapporter och prognoser från 4000 flygplatser (METAR- och TAF-rapporter).

De tillgängliga stationerna syns som gula och röda prickar på kartan.

För musen över prickarna för att se namnen på stationerna.

Klicka sedan för att få väderrapporter och prognoser.

För att ändra kartan: Klicka på de gröna knapparna med ett svart kors på för att zooma in; den gröna knappen med ett streck på för att zooma ut; eller på de gröna pilarna för angränsande kartor.


METAR-TAF: